sensor_id;sensor_type;location;lat;lon;timestamp;pressure;altitude;pressure_sealevel;temperature;humidity
73551;BME280;61816;53.582;10.096;2022-12-16T00:01:16;100787.28;;;-0.89;100.00
73551;BME280;61816;53.582;10.096;2022-12-16T00:03:46;100793.81;;;-0.95;100.00
73551;BME280;61816;53.582;10.096;2022-12-16T00:06:11;100786.44;;;-0.90;100.00
73551;BME280;61816;53.582;10.096;2022-12-16T00:08:38;100789.03;;;-1.04;100.00
73551;BME280;61816;53.582;10.096;2022-12-16T00:11:05;100792.78;;;-1.08;100.00
73551;BME280;61816;53.582;10.096;2022-12-16T00:13:31;100797.06;;;-1.05;100.00
73551;BME280;61816;53.582;10.096;2022-12-16T00:15:57;100807.69;;;-1.21;100.00
73551;BME280;61816;53.582;10.096;2022-12-16T00:18:23;100808.88;;;-1.11;100.00
73551;BME280;61816;53.582;10.096;2022-12-16T00:20:51;100819.59;;;-1.28;100.00
73551;BME280;61816;53.582;10.096;2022-12-16T00:23:17;100815.94;;;-1.10;100.00
73551;BME280;61816;53.582;10.096;2022-12-16T00:25:43;100820.13;;;-1.06;100.00
73551;BME280;61816;53.582;10.096;2022-12-16T00:28:10;100818.66;;;-1.12;100.00
73551;BME280;61816;53.582;10.096;2022-12-16T00:30:36;100824.66;;;-1.08;100.00
73551;BME280;61816;53.582;10.096;2022-12-16T00:33:01;100820.56;;;-0.98;100.00
73551;BME280;61816;53.582;10.096;2022-12-16T00:35:27;100807.84;;;-0.93;100.00
73551;BME280;61816;53.582;10.096;2022-12-16T00:37:52;100809.50;;;-0.90;100.00
73551;BME280;61816;53.582;10.096;2022-12-16T00:40:18;100803.56;;;-0.79;100.00
73551;BME280;61816;53.582;10.096;2022-12-16T00:42:43;100809.41;;;-0.89;100.00
73551;BME280;61816;53.582;10.096;2022-12-16T00:45:09;100819.00;;;-0.70;99.32
73551;BME280;61816;53.582;10.096;2022-12-16T00:47:34;100812.66;;;-0.84;99.64
73551;BME280;61816;53.582;10.096;2022-12-16T00:50:00;100826.47;;;-0.93;99.57
73551;BME280;61816;53.582;10.096;2022-12-16T00:52:25;100820.72;;;-0.85;99.93
73551;BME280;61816;53.582;10.096;2022-12-16T00:54:51;100817.44;;;-0.74;99.90
73551;BME280;61816;53.582;10.096;2022-12-16T00:57:16;100825.50;;;-0.92;99.92
73551;BME280;61816;53.582;10.096;2022-12-16T00:59:42;100825.34;;;-0.89;99.62
73551;BME280;61816;53.582;10.096;2022-12-16T01:02:07;100827.06;;;-0.88;100.00
73551;BME280;61816;53.582;10.096;2022-12-16T01:04:35;100833.75;;;-1.12;100.00
73551;BME280;61816;53.582;10.096;2022-12-16T01:07:00;100830.13;;;-1.11;100.00
73551;BME280;61816;53.582;10.096;2022-12-16T01:09:26;100832.56;;;-1.06;100.00
73551;BME280;61816;53.582;10.096;2022-12-16T01:11:51;100833.84;;;-0.98;100.00
73551;BME280;61816;53.582;10.096;2022-12-16T01:14:17;100821.41;;;-0.82;100.00
73551;BME280;61816;53.582;10.096;2022-12-16T01:16:43;100827.81;;;-0.86;99.99
73551;BME280;61816;53.582;10.096;2022-12-16T01:19:09;100837.16;;;-0.78;100.00
73551;BME280;61816;53.582;10.096;2022-12-16T01:21:35;100834.75;;;-0.67;100.00
73551;BME280;61816;53.582;10.096;2022-12-16T01:24:01;100841.88;;;-0.52;99.20
73551;BME280;61816;53.582;10.096;2022-12-16T01:26:26;100839.97;;;-0.50;98.81
73551;BME280;61816;53.582;10.096;2022-12-16T01:28:51;100853.44;;;-0.53;99.15
73551;BME280;61816;53.582;10.096;2022-12-16T01:31:18;100846.25;;;-0.51;98.83
73551;BME280;61816;53.582;10.096;2022-12-16T01:33:45;100851.31;;;-0.62;99.09
73551;BME280;61816;53.582;10.096;2022-12-16T01:36:11;100859.22;;;-0.76;99.42
73551;BME280;61816;53.582;10.096;2022-12-16T01:38:37;100860.16;;;-0.77;99.10
73551;BME280;61816;53.582;10.096;2022-12-16T01:41:03;100855.88;;;-0.96;99.64
73551;BME280;61816;53.582;10.096;2022-12-16T01:43:34;100862.56;;;-0.89;99.90
73551;BME280;61816;53.582;10.096;2022-12-16T01:46:12;100866.50;;;-0.96;100.00
73551;BME280;61816;53.582;10.096;2022-12-16T01:51:33;100867.13;;;-0.91;100.00
73551;BME280;61816;53.582;10.096;2022-12-16T01:54:25;100859.63;;;-1.00;100.00
73551;BME280;61816;53.582;10.096;2022-12-16T01:56:58;100858.97;;;-1.03;100.00
73551;BME280;61816;53.582;10.096;2022-12-16T01:59:27;100853.47;;;-1.16;100.00
73551;BME280;61816;53.582;10.096;2022-12-16T02:01:53;100868.19;;;-1.26;100.00
73551;BME280;61816;53.582;10.096;2022-12-16T02:04:19;100860.22;;;-1.26;100.00
73551;BME280;61816;53.582;10.096;2022-12-16T02:06:44;100868.34;;;-1.29;100.00
73551;BME280;61816;53.582;10.096;2022-12-16T02:09:12;100864.03;;;-1.48;100.00
73551;BME280;61816;53.582;10.096;2022-12-16T02:14:27;100862.88;;;-1.26;100.00
73551;BME280;61816;53.582;10.096;2022-12-16T02:17:22;100862.09;;;-1.13;100.00
73551;BME280;61816;53.582;10.096;2022-12-16T02:25:46;100862.53;;;-1.36;100.00
73551;BME280;61816;53.582;10.096;2022-12-16T02:34:01;100856.28;;;-1.19;100.00
73551;BME280;61816;53.582;10.096;2022-12-16T02:36:41;100862.91;;;-1.11;100.00
73551;BME280;61816;53.582;10.096;2022-12-16T02:39:16;100868.22;;;-0.95;100.00
73551;BME280;61816;53.582;10.096;2022-12-16T02:42:03;100863.56;;;-1.07;99.81
73551;BME280;61816;53.582;10.096;2022-12-16T02:44:49;100871.28;;;-1.18;100.00
73551;BME280;61816;53.582;10.096;2022-12-16T02:47:17;100865.75;;;-0.98;99.84
73551;BME280;61816;53.582;10.096;2022-12-16T02:49:48;100868.41;;;-0.98;99.33
73551;BME280;61816;53.582;10.096;2022-12-16T02:52:16;100866.56;;;-1.13;98.97
73551;BME280;61816;53.582;10.096;2022-12-16T02:58:41;100865.22;;;-1.71;100.00
73551;BME280;61816;53.582;10.096;2022-12-16T03:01:45;100864.50;;;-1.57;100.00
73551;BME280;61816;53.582;10.096;2022-12-16T03:04:19;100866.69;;;-1.65;100.00
73551;BME280;61816;53.582;10.096;2022-12-16T03:06:48;100863.44;;;-1.70;100.00
73551;BME280;61816;53.582;10.096;2022-12-16T03:09:20;100859.56;;;-1.98;100.00
73551;BME280;61816;53.582;10.096;2022-12-16T03:11:49;100869.44;;;-1.67;100.00
73551;BME280;61816;53.582;10.096;2022-12-16T03:14:17;100870.31;;;-1.66;100.00
73551;BME280;61816;53.582;10.096;2022-12-16T03:16:45;100867.53;;;-1.80;100.00
73551;BME280;61816;53.582;10.096;2022-12-16T03:19:12;100872.50;;;-1.92;100.00
73551;BME280;61816;53.582;10.096;2022-12-16T03:21:45;100877.66;;;-2.06;100.00
73551;BME280;61816;53.582;10.096;2022-12-16T03:24:13;100877.44;;;-2.19;100.00
73551;BME280;61816;53.582;10.096;2022-12-16T03:26:50;100882.81;;;-2.03;100.00
73551;BME280;61816;53.582;10.096;2022-12-16T03:29:29;100884.53;;;-2.02;100.00
73551;BME280;61816;53.582;10.096;2022-12-16T03:32:03;100889.69;;;-1.99;100.00
73551;BME280;61816;53.582;10.096;2022-12-16T03:34:41;100886.88;;;-1.96;100.00
73551;BME280;61816;53.582;10.096;2022-12-16T03:37:09;100892.72;;;-2.06;100.00
73551;BME280;61816;53.582;10.096;2022-12-16T03:39:48;100893.13;;;-2.14;100.00
73551;BME280;61816;53.582;10.096;2022-12-16T03:42:14;100892.31;;;-2.16;100.00
73551;BME280;61816;53.582;10.096;2022-12-16T03:44:42;100890.41;;;-2.49;100.00
73551;BME280;61816;53.582;10.096;2022-12-16T03:47:07;100882.94;;;-2.40;100.00
73551;BME280;61816;53.582;10.096;2022-12-16T03:49:33;100892.13;;;-2.48;100.00
73551;BME280;61816;53.582;10.096;2022-12-16T03:51:58;100890.56;;;-2.52;100.00
73551;BME280;61816;53.582;10.096;2022-12-16T03:54:23;100894.56;;;-2.62;100.00
73551;BME280;61816;53.582;10.096;2022-12-16T03:56:50;100890.84;;;-2.58;100.00
73551;BME280;61816;53.582;10.096;2022-12-16T03:59:15;100901.47;;;-2.58;100.00
73551;BME280;61816;53.582;10.096;2022-12-16T04:01:41;100906.59;;;-2.55;100.00
73551;BME280;61816;53.582;10.096;2022-12-16T04:04:08;100905.03;;;-2.59;100.00
73551;BME280;61816;53.582;10.096;2022-12-16T04:06:33;100914.34;;;-2.69;100.00
73551;BME280;61816;53.582;10.096;2022-12-16T04:08:59;100915.94;;;-2.84;100.00
73551;BME280;61816;53.582;10.096;2022-12-16T04:11:24;100911.78;;;-2.70;100.00
73551;BME280;61816;53.582;10.096;2022-12-16T04:14:08;100921.16;;;-2.82;100.00
73551;BME280;61816;53.582;10.096;2022-12-16T04:16:52;100918.59;;;-3.03;100.00
73551;BME280;61816;53.582;10.096;2022-12-16T04:19:37;100922.53;;;-2.92;100.00
73551;BME280;61816;53.582;10.096;2022-12-16T04:22:30;100925.47;;;-2.98;100.00
73551;BME280;61816;53.582;10.096;2022-12-16T04:25:21;100925.09;;;-3.10;100.00
73551;BME280;61816;53.582;10.096;2022-12-16T04:27:48;100929.09;;;-3.01;100.00
73551;BME280;61816;53.582;10.096;2022-12-16T04:30:16;100939.84;;;-3.04;100.00
73551;BME280;61816;53.582;10.096;2022-12-16T04:32:52;100933.25;;;-2.95;100.00
73551;BME280;61816;53.582;10.096;2022-12-16T04:35:37;100937.41;;;-3.09;100.00
73551;BME280;61816;53.582;10.096;2022-12-16T04:38:21;100945.78;;;-3.18;100.00
73551;BME280;61816;53.582;10.096;2022-12-16T04:41:05;100941.53;;;-3.22;100.00
73551;BME280;61816;53.582;10.096;2022-12-16T04:43:49;100942.97;;;-3.15;100.00
73551;BME280;61816;53.582;10.096;2022-12-16T04:46:33;100943.94;;;-3.36;100.00
73551;BME280;61816;53.582;10.096;2022-12-16T04:49:17;100947.00;;;-3.25;100.00
73551;BME280;61816;53.582;10.096;2022-12-16T04:52:01;100961.44;;;-3.32;100.00
73551;BME280;61816;53.582;10.096;2022-12-16T04:54:45;100949.50;;;-3.42;100.00
73551;BME280;61816;53.582;10.096;2022-12-16T04:57:29;100958.13;;;-3.37;100.00
73551;BME280;61816;53.582;10.096;2022-12-16T05:00:13;100949.94;;;-3.51;100.00
73551;BME280;61816;53.582;10.096;2022-12-16T05:02:57;100961.03;;;-3.64;100.00
73551;BME280;61816;53.582;10.096;2022-12-16T05:05:42;100957.19;;;-3.57;100.00
73551;BME280;61816;53.582;10.096;2022-12-16T05:08:26;100955.34;;;-3.55;100.00
73551;BME280;61816;53.582;10.096;2022-12-16T05:11:09;100958.66;;;-3.49;100.00
73551;BME280;61816;53.582;10.096;2022-12-16T05:13:53;100954.47;;;-3.55;100.00
73551;BME280;61816;53.582;10.096;2022-12-16T05:16:37;100952.28;;;-3.66;100.00
73551;BME280;61816;53.582;10.096;2022-12-16T05:19:20;100959.59;;;-3.71;100.00
73551;BME280;61816;53.582;10.096;2022-12-16T05:22:04;100961.66;;;-3.79;100.00
73551;BME280;61816;53.582;10.096;2022-12-16T05:24:48;100959.59;;;-3.71;100.00
73551;BME280;61816;53.582;10.096;2022-12-16T05:27:32;100964.47;;;-3.62;100.00
73551;BME280;61816;53.582;10.096;2022-12-16T05:30:17;100970.44;;;-3.77;100.00
73551;BME280;61816;53.582;10.096;2022-12-16T05:33:00;100974.00;;;-3.78;100.00
73551;BME280;61816;53.582;10.096;2022-12-16T05:35:44;100980.00;;;-3.74;100.00
73551;BME280;61816;53.582;10.096;2022-12-16T05:38:28;100979.66;;;-3.87;100.00
73551;BME280;61816;53.582;10.096;2022-12-16T05:41:12;100977.16;;;-3.90;100.00
73551;BME280;61816;53.582;10.096;2022-12-16T05:43:56;100982.97;;;-3.82;100.00
73551;BME280;61816;53.582;10.096;2022-12-16T05:46:39;100993.03;;;-3.70;100.00
73551;BME280;61816;53.582;10.096;2022-12-16T05:49:23;100996.38;;;-3.65;100.00
73551;BME280;61816;53.582;10.096;2022-12-16T05:52:07;100993.41;;;-3.79;100.00
73551;BME280;61816;53.582;10.096;2022-12-16T05:54:51;100992.53;;;-3.78;100.00
73551;BME280;61816;53.582;10.096;2022-12-16T05:57:35;100997.31;;;-3.88;100.00
73551;BME280;61816;53.582;10.096;2022-12-16T06:00:19;100996.75;;;-3.74;100.00
73551;BME280;61816;53.582;10.096;2022-12-16T06:03:03;101003.09;;;-3.78;100.00
73551;BME280;61816;53.582;10.096;2022-12-16T06:05:47;101006.69;;;-3.59;100.00
73551;BME280;61816;53.582;10.096;2022-12-16T06:08:30;101004.44;;;-3.47;100.00
73551;BME280;61816;53.582;10.096;2022-12-16T06:11:14;101010.53;;;-3.45;100.00
73551;BME280;61816;53.582;10.096;2022-12-16T06:13:58;101017.38;;;-3.62;100.00
73551;BME280;61816;53.582;10.096;2022-12-16T06:16:41;101008.19;;;-3.73;100.00
73551;BME280;61816;53.582;10.096;2022-12-16T06:19:25;101028.13;;;-3.65;100.00
73551;BME280;61816;53.582;10.096;2022-12-16T06:22:09;101031.66;;;-3.66;100.00
73551;BME280;61816;53.582;10.096;2022-12-16T06:24:53;101034.34;;;-3.45;100.00
73551;BME280;61816;53.582;10.096;2022-12-16T06:27:37;101036.06;;;-3.65;100.00
73551;BME280;61816;53.582;10.096;2022-12-16T06:30:20;101039.66;;;-3.67;100.00
73551;BME280;61816;53.582;10.096;2022-12-16T06:33:05;101042.00;;;-3.60;100.00
73551;BME280;61816;53.582;10.096;2022-12-16T06:35:48;101042.81;;;-3.37;100.00
73551;BME280;61816;53.582;10.096;2022-12-16T06:38:32;101043.16;;;-3.45;100.00
73551;BME280;61816;53.582;10.096;2022-12-16T06:41:16;101044.41;;;-3.33;100.00
73551;BME280;61816;53.582;10.096;2022-12-16T06:44:00;101055.13;;;-3.36;100.00
73551;BME280;61816;53.582;10.096;2022-12-16T06:46:54;101066.91;;;-3.23;100.00
73551;BME280;61816;53.582;10.096;2022-12-16T06:49:38;101068.25;;;-3.13;100.00
73551;BME280;61816;53.582;10.096;2022-12-16T06:52:22;101075.03;;;-3.28;100.00
73551;BME280;61816;53.582;10.096;2022-12-16T06:55:06;101073.25;;;-3.07;100.00
73551;BME280;61816;53.582;10.096;2022-12-16T06:57:56;101083.84;;;-3.27;100.00
73551;BME280;61816;53.582;10.096;2022-12-16T07:00:40;101079.09;;;-3.19;100.00
73551;BME280;61816;53.582;10.096;2022-12-16T07:03:24;101076.56;;;-3.02;100.00
73551;BME280;61816;53.582;10.096;2022-12-16T07:06:08;101077.63;;;-2.85;100.00
73551;BME280;61816;53.582;10.096;2022-12-16T07:08:51;101079.34;;;-2.84;100.00
73551;BME280;61816;53.582;10.096;2022-12-16T07:11:35;101080.13;;;-2.82;100.00
73551;BME280;61816;53.582;10.096;2022-12-16T07:14:19;101091.25;;;-2.74;100.00
73551;BME280;61816;53.582;10.096;2022-12-16T07:17:03;101100.41;;;-2.81;100.00
73551;BME280;61816;53.582;10.096;2022-12-16T07:19:46;101106.34;;;-2.76;100.00
73551;BME280;61816;53.582;10.096;2022-12-16T07:22:30;101106.34;;;-2.76;100.00
73551;BME280;61816;53.582;10.096;2022-12-16T07:25:14;101110.19;;;-2.63;100.00
73551;BME280;61816;53.582;10.096;2022-12-16T07:27:58;101115.63;;;-2.66;100.00
73551;BME280;61816;53.582;10.096;2022-12-16T07:30:42;101118.94;;;-2.61;100.00
73551;BME280;61816;53.582;10.096;2022-12-16T07:33:42;101126.59;;;-2.74;100.00
73551;BME280;61816;53.582;10.096;2022-12-16T07:36:26;101134.69;;;-2.58;100.00
73551;BME280;61816;53.582;10.096;2022-12-16T07:39:10;101136.03;;;-2.48;100.00
73551;BME280;61816;53.582;10.096;2022-12-16T07:41:54;101143.31;;;-2.53;100.00
73551;BME280;61816;53.582;10.096;2022-12-16T07:44:37;101142.22;;;-2.49;100.00
73551;BME280;61816;53.582;10.096;2022-12-16T07:47:21;101143.34;;;-2.34;100.00
73551;BME280;61816;53.582;10.096;2022-12-16T07:50:05;101158.41;;;-2.34;100.00
73551;BME280;61816;53.582;10.096;2022-12-16T07:52:56;101166.59;;;-2.20;100.00
73551;BME280;61816;53.582;10.096;2022-12-16T07:55:41;101155.53;;;-2.30;100.00
73551;BME280;61816;53.582;10.096;2022-12-16T07:58:25;101158.69;;;-2.40;100.00
73551;BME280;61816;53.582;10.096;2022-12-16T08:01:09;101170.84;;;-2.36;100.00
73551;BME280;61816;53.582;10.096;2022-12-16T08:03:52;101172.13;;;-2.45;100.00
73551;BME280;61816;53.582;10.096;2022-12-16T08:06:37;101176.69;;;-2.49;100.00
73551;BME280;61816;53.582;10.096;2022-12-16T08:09:20;101174.31;;;-2.34;100.00
73551;BME280;61816;53.582;10.096;2022-12-16T08:12:04;101166.13;;;-2.30;100.00
73551;BME280;61816;53.582;10.096;2022-12-16T08:14:48;101194.97;;;-2.22;100.00
73551;BME280;61816;53.582;10.096;2022-12-16T08:17:32;101190.81;;;-2.09;100.00
73551;BME280;61816;53.582;10.096;2022-12-16T08:20:16;101195.84;;;-2.03;100.00
73551;BME280;61816;53.582;10.096;2022-12-16T08:23:00;101197.59;;;-2.02;100.00
73551;BME280;61816;53.582;10.096;2022-12-16T08:25:43;101202.91;;;-2.02;100.00
73551;BME280;61816;53.582;10.096;2022-12-16T08:28:27;101210.03;;;-2.04;100.00
73551;BME280;61816;53.582;10.096;2022-12-16T08:31:11;101213.91;;;-2.11;100.00
73551;BME280;61816;53.582;10.096;2022-12-16T08:33:55;101223.69;;;-1.93;100.00
73551;BME280;61816;53.582;10.096;2022-12-16T08:36:38;101214.41;;;-1.82;100.00
73551;BME280;61816;53.582;10.096;2022-12-16T08:39:22;101230.44;;;-1.85;100.00
73551;BME280;61816;53.582;10.096;2022-12-16T08:42:06;101233.75;;;-1.80;100.00
73551;BME280;61816;53.582;10.096;2022-12-16T08:44:50;101242.38;;;-1.75;100.00
73551;BME280;61816;53.582;10.096;2022-12-16T08:47:33;101244.09;;;-1.74;100.00
73551;BME280;61816;53.582;10.096;2022-12-16T08:50:17;101249.69;;;-1.61;100.00
73551;BME280;61816;53.582;10.096;2022-12-16T08:53:01;101246.09;;;-1.42;100.00
73551;BME280;61816;53.582;10.096;2022-12-16T08:55:45;101260.31;;;-1.43;100.00
73551;BME280;61816;53.582;10.096;2022-12-16T08:58:29;101255.28;;;-1.49;100.00
73551;BME280;61816;53.582;10.096;2022-12-16T09:01:12;101256.44;;;-1.35;100.00
73551;BME280;61816;53.582;10.096;2022-12-16T09:03:56;101266.47;;;-1.23;100.00
73551;BME280;61816;53.582;10.096;2022-12-16T09:06:40;101260.88;;;-1.17;100.00
73551;BME280;61816;53.582;10.096;2022-12-16T09:09:24;101267.25;;;-1.21;100.00
73551;BME280;61816;53.582;10.096;2022-12-16T09:12:07;101274.09;;;-1.34;100.00
73551;BME280;61816;53.582;10.096;2022-12-16T09:14:51;101277.22;;;-1.26;100.00
73551;BME280;61816;53.582;10.096;2022-12-16T09:17:35;101274.16;;;-1.17;100.00
73551;BME280;61816;53.582;10.096;2022-12-16T09:20:19;101274.66;;;-1.09;100.00
73551;BME280;61816;53.582;10.096;2022-12-16T09:23:03;101291.34;;;-0.88;100.00
73551;BME280;61816;53.582;10.096;2022-12-16T09:25:48;101285.47;;;-0.95;100.00
73551;BME280;61816;53.582;10.096;2022-12-16T09:28:31;101297.16;;;-0.99;100.00
73551;BME280;61816;53.582;10.096;2022-12-16T09:31:15;101298.44;;;-0.89;100.00
73551;BME280;61816;53.582;10.096;2022-12-16T09:33:59;101299.97;;;-0.83;100.00
73551;BME280;61816;53.582;10.096;2022-12-16T09:36:42;101299.56;;;-0.75;100.00
73551;BME280;61816;53.582;10.096;2022-12-16T09:39:26;101305.19;;;-0.82;100.00
73551;BME280;61816;53.582;10.096;2022-12-16T09:45:29;101313.63;;;-0.73;100.00
73551;BME280;61816;53.582;10.096;2022-12-16T09:48:24;101313.94;;;-0.79;100.00
73551;BME280;61816;53.582;10.096;2022-12-16T09:51:11;101324.28;;;-0.73;100.00
73551;BME280;61816;53.582;10.096;2022-12-16T09:53:57;101320.25;;;-0.63;100.00
73551;BME280;61816;53.582;10.096;2022-12-16T09:56:43;101318.56;;;-0.66;100.00
73551;BME280;61816;53.582;10.096;2022-12-16T09:59:39;101317.25;;;-0.74;100.00
73551;BME280;61816;53.582;10.096;2022-12-16T10:09:32;101323.03;;;-0.84;100.00
73551;BME280;61816;53.582;10.096;2022-12-16T10:15:28;101324.09;;;-0.88;100.00
73551;BME280;61816;53.582;10.096;2022-12-16T10:18:31;101326.47;;;-0.82;100.00
73551;BME280;61816;53.582;10.096;2022-12-16T10:21:24;101325.22;;;-0.74;100.00
73551;BME280;61816;53.582;10.096;2022-12-16T10:27:10;101330.81;;;-0.98;100.00
73551;BME280;61816;53.582;10.096;2022-12-16T10:29:56;101325.16;;;-0.92;100.00
73551;BME280;61816;53.582;10.096;2022-12-16T10:32:47;101328.34;;;-0.84;100.00
73551;BME280;61816;53.582;10.096;2022-12-16T10:38:25;101326.56;;;-0.66;100.00
73551;BME280;61816;53.582;10.096;2022-12-16T10:41:14;101329.75;;;-0.76;100.00
73551;BME280;61816;53.582;10.096;2022-12-16T10:44:01;101329.75;;;-0.76;100.00
73551;BME280;61816;53.582;10.096;2022-12-16T10:46:47;101328.56;;;-0.52;100.00
73551;BME280;61816;53.582;10.096;2022-12-16T10:49:31;101337.31;;;-0.50;100.00
73551;BME280;61816;53.582;10.096;2022-12-16T10:52:16;101336.59;;;-0.53;100.00
73551;BME280;61816;53.582;10.096;2022-12-16T10:58:27;101332.91;;;-0.68;100.00
73551;BME280;61816;53.582;10.096;2022-12-16T11:01:22;101330.72;;;-0.60;100.00
73551;BME280;61816;53.582;10.096;2022-12-16T11:10:27;101336.28;;;-0.65;100.00
73551;BME280;61816;53.582;10.096;2022-12-16T11:13:32;101333.88;;;-0.52;100.00
73551;BME280;61816;53.582;10.096;2022-12-16T11:16:27;101340.63;;;-0.45;100.00
73551;BME280;61816;53.582;10.096;2022-12-16T11:19:25;101335.16;;;-0.24;99.59
73551;BME280;61816;53.582;10.096;2022-12-16T11:22:21;101334.50;;;-0.30;99.38
73551;BME280;61816;53.582;10.096;2022-12-16T11:28:03;101329.66;;;-0.39;100.00
73551;BME280;61816;53.582;10.096;2022-12-16T11:30:52;101341.84;;;-0.35;100.00
73551;BME280;61816;53.582;10.096;2022-12-16T11:33:38;101334.22;;;-0.23;100.00
73551;BME280;61816;53.582;10.096;2022-12-16T11:36:23;101343.75;;;-0.37;100.00
73551;BME280;61816;53.582;10.096;2022-12-16T11:39:13;101335.31;;;-0.10;99.88
73551;BME280;61816;53.582;10.096;2022-12-16T11:41:58;101333.75;;;-0.32;99.47
73551;BME280;61816;53.582;10.096;2022-12-16T11:44:49;101341.00;;;-0.35;99.47
73551;BME280;61816;53.582;10.096;2022-12-16T11:47:40;101338.66;;;-0.24;99.24
73551;BME280;61816;53.582;10.096;2022-12-16T11:50:27;101343.28;;;-0.28;98.63
73551;BME280;61816;53.582;10.096;2022-12-16T11:56:25;101349.22;;;-0.22;99.11
73551;BME280;61816;53.582;10.096;2022-12-16T11:59:32;101337.94;;;-0.28;98.98
73551;BME280;61816;53.582;10.096;2022-12-16T12:02:31;101343.22;;;-0.26;99.39
73551;BME280;61816;53.582;10.096;2022-12-16T12:05:23;101342.66;;;-0.15;99.21
73551;BME280;61816;53.582;10.096;2022-12-16T12:08:19;101344.78;;;-0.05;98.63
73551;BME280;61816;53.582;10.096;2022-12-16T12:14:16;101348.28;;;0.13;98.51
73551;BME280;61816;53.582;10.096;2022-12-16T12:18:10;101346.41;;;0.15;97.20
73551;BME280;61816;53.582;10.096;2022-12-16T12:20:40;101360.81;;;0.11;97.21
73551;BME280;61816;53.582;10.096;2022-12-16T12:23:39;101357.97;;;0.32;97.54
73551;BME280;61816;53.582;10.096;2022-12-16T12:26:31;101354.97;;;0.38;96.85
73551;BME280;61816;53.582;10.096;2022-12-16T12:39:33;101368.16;;;0.41;96.65
73551;BME280;61816;53.582;10.096;2022-12-16T12:45:27;101366.09;;;0.46;96.08
73551;BME280;61816;53.582;10.096;2022-12-16T12:48:26;101380.34;;;0.45;96.09
73551;BME280;61816;53.582;10.096;2022-12-16T12:51:52;101382.31;;;0.41;95.59
73551;BME280;61816;53.582;10.096;2022-12-16T12:54:53;101392.88;;;0.43;95.97
73551;BME280;61816;53.582;10.096;2022-12-16T12:57:42;101386.00;;;0.39;95.96
73551;BME280;61816;53.582;10.096;2022-12-16T13:00:31;101395.09;;;0.35;96.47
73551;BME280;61816;53.582;10.096;2022-12-16T13:06:13;101397.72;;;0.52;95.52
73551;BME280;61816;53.582;10.096;2022-12-16T13:08:58;101397.44;;;0.41;96.21
73551;BME280;61816;53.582;10.096;2022-12-16T13:20:49;101400.28;;;0.03;97.76
73551;BME280;61816;53.582;10.096;2022-12-16T13:23:38;101409.34;;;-0.01;97.49
73551;BME280;61816;53.582;10.096;2022-12-16T13:26:24;101414.25;;;-0.28;98.70
73551;BME280;61816;53.582;10.096;2022-12-16T13:29:29;101413.09;;;-0.22;98.99
73551;BME280;61816;53.582;10.096;2022-12-16T13:32:23;101418.06;;;-0.34;99.40
73551;BME280;61816;53.582;10.096;2022-12-16T13:37:53;101426.25;;;-0.19;99.25
73551;BME280;61816;53.582;10.096;2022-12-16T13:43:56;101417.34;;;-0.18;99.23
73551;BME280;61816;53.582;10.096;2022-12-16T13:46:42;101429.88;;;-0.03;98.47
73551;BME280;61816;53.582;10.096;2022-12-16T13:52:27;101431.66;;;-0.04;98.95
73551;BME280;61816;53.582;10.096;2022-12-16T13:55:18;101433.63;;;0.10;98.22
73551;BME280;61816;53.582;10.096;2022-12-16T13:58:08;101437.38;;;0.06;97.58
73551;BME280;61816;53.582;10.096;2022-12-16T14:01:04;101431.31;;;0.21;97.11
73551;BME280;61816;53.582;10.096;2022-12-16T14:03:50;101443.44;;;0.10;97.09
73551;BME280;61816;53.582;10.096;2022-12-16T14:06:36;101438.50;;;0.02;97.14
73551;BME280;61816;53.582;10.096;2022-12-16T14:09:31;101442.69;;;0.06;97.36
73551;BME280;61816;53.582;10.096;2022-12-16T14:12:24;101440.53;;;0.14;96.98
73551;BME280;61816;53.582;10.096;2022-12-16T14:15:23;101454.38;;;0.04;97.43
73551;BME280;61816;53.582;10.096;2022-12-16T14:21:27;101459.63;;;-0.12;97.51
73551;BME280;61816;53.582;10.096;2022-12-16T14:24:23;101459.69;;;0.04;97.96
73551;BME280;61816;53.582;10.096;2022-12-16T14:27:15;101453.81;;;-0.03;97.96
73551;BME280;61816;53.582;10.096;2022-12-16T14:32:58;101461.03;;;-0.05;98.33
73551;BME280;61816;53.582;10.096;2022-12-16T14:35:48;101468.22;;;-0.07;97.56
73551;BME280;61816;53.582;10.096;2022-12-16T14:38:37;101468.50;;;-0.13;98.02
73551;BME280;61816;53.582;10.096;2022-12-16T14:41:22;101470.25;;;-0.12;98.41
73551;BME280;61816;53.582;10.096;2022-12-16T14:44:23;101471.41;;;-0.18;97.44
73551;BME280;61816;53.582;10.096;2022-12-16T14:47:19;101470.84;;;-0.24;98.11
73551;BME280;61816;53.582;10.096;2022-12-16T14:50:17;101481.50;;;-0.24;97.96
73551;BME280;61816;53.582;10.096;2022-12-16T14:53:21;101477.19;;;-0.46;98.57
73551;BME280;61816;53.582;10.096;2022-12-16T14:56:23;101473.44;;;-0.42;98.58
73551;BME280;61816;53.582;10.096;2022-12-16T14:59:18;101484.38;;;-0.48;98.40
73551;BME280;61816;53.582;10.096;2022-12-16T15:02:13;101491.59;;;-0.50;97.75
73551;BME280;61816;53.582;10.096;2022-12-16T15:05:02;101488.44;;;-0.58;98.14
73551;BME280;61816;53.582;10.096;2022-12-16T15:07:46;101493.56;;;-0.93;99.78
73551;BME280;61816;53.582;10.096;2022-12-16T15:10:31;101501.03;;;-1.01;100.00
73551;BME280;61816;53.582;10.096;2022-12-16T15:13:16;101504.34;;;-0.96;100.00
73551;BME280;61816;53.582;10.096;2022-12-16T15:16:02;101504.34;;;-0.96;100.00
73551;BME280;61816;53.582;10.096;2022-12-16T15:18:53;101507.94;;;-0.97;100.00
73551;BME280;61816;53.582;10.096;2022-12-16T15:21:41;101512.19;;;-1.13;100.00
73551;BME280;61816;53.582;10.096;2022-12-16T15:24:25;101521.88;;;-1.12;100.00
73551;BME280;61816;53.582;10.096;2022-12-16T15:27:32;101526.25;;;-1.11;100.00